Panagia Faneromeni — SW9785 — position and weather

sailwx.info

Track history (hours):
 
Tides and Currents Weather Stations Pressure Air Temp Water Temp Dewpoint Dewpoint Depression Visibility Wind Speed Wind Dir Waves Ship Positions

Panagia Faneromeni

Last reported at 2014-Sep-02 01:25 UTC. Time now 2014-Sep-02 02:13 UTC.
Position N 36°47' E 024°35'.

Length 33 m; draft 2 m.

Type: Ship. MMSI: 237071900.

Date/timePositionNaut miles runAvg speedWind from/ knotsBaromVisibWave heightAir tempDewpointWater temp
2014-Sep-02 01:25N 36°47' E 024°35'0 0.0
2014-Sep-02 00:31N 36°47' E 024°35'0 0.0
2014-Sep-01 22:31N 36°47' E 024°35'0 0.0
2014-Sep-01 21:24N 36°47' E 024°35'1 0.3
2014-Sep-01 16:27N 36°46' E 024°34'0 0.3
2014-Sep-01 15:14N 36°46' E 024°33'2 0.5
2014-Sep-01 12:13N 36°47' E 024°35'0 0.0
2014-Sep-01 11:32N 36°47' E 024°35'1 1.2
2014-Sep-01 10:27N 36°46' E 024°34'0 0.0
2014-Sep-01 09:12N 36°46' E 024°34'0 0.4
2014-Sep-01 08:29N 36°46' E 024°33'1 1.0
2014-Sep-01 07:30N 36°46' E 024°34'0 0.0
2014-Sep-01 04:33N 36°46' E 024°34'1 0.4
2014-Sep-01 02:13N 36°47' E 024°35'0 0.0
2014-Sep-01 01:31N 36°47' E 024°35'0 0.0
2014-Sep-01 00:31N 36°47' E 024°35'0 0.0
2014-Aug-31 23:25N 36°47' E 024°35'0 0.0
2014-Aug-31 21:31N 36°47' E 024°35'1 0.2
2014-Aug-31 17:03N 36°46' E 024°34'0 0.4
2014-Aug-31 16:24N 36°46' E 024°34'0 0.0
2014-Aug-31 15:08N 36°46' E 024°34'  
2014-Aug-29 07:21N 36°47' E 024°35'0 0.1
2014-Aug-29 06:33N 36°47' E 024°35'1 0.3
2014-Aug-29 04:33N 36°46' E 024°34'1 0.7
2014-Aug-29 03:28N 36°47' E 024°35'0 0.0
2014-Aug-29 02:28N 36°47' E 024°35'0 0.0
2014-Aug-29 01:29N 36°47' E 024°35'1 0.1
2014-Aug-28 15:10N 36°46' E 024°34'0 0.4
2014-Aug-28 14:19N 36°46' E 024°34'0 0.0
2014-Aug-28 10:24N 36°46' E 024°34'0 0.0
2014-Aug-27 16:24N 36°46' E 024°34'1 0.1
2014-Aug-26 22:16N 36°47' E 024°35'2 0.3
2014-Aug-26 15:14N 36°46' E 024°33'1 0.9
2014-Aug-26 14:17N 36°46' E 024°34'1 0.1
2014-Aug-26 10:27N 36°46' E 024°33'0 0.1
2014-Aug-26 09:11N 36°46' E 024°34'0 0.5
2014-Aug-26 08:31N 36°46' E 024°34'1 0.5
2014-Aug-26 07:22N 36°47' E 024°35'2 1.3
2014-Aug-26 05:33N 36°46' E 024°32'3 2.3
2014-Aug-26 04:27N 36°47' E 024°35'1 0.0
2014-Aug-24 17:20N 36°46' E 024°34'0 0.0
2014-Aug-24 09:14N 36°46' E 024°34'  
Track history (hours):
 
Tides and Currents Weather Stations Pressure Air Temp Water Temp Dewpoint Dewpoint Depression Visibility Wind Speed Wind Dir Waves Ship Positions

Panagia Faneromeni

Last reported at 2014-Sep-02 01:25 UTC. Time now 2014-Sep-02 02:13 UTC.
Position N 36°47' E 024°35'.

Length 33 m; draft 2 m.

Type: Ship. MMSI: 237071900.

Date/timePositionNaut miles runAvg speedWind from/ knotsBaromVisibWave heightAir tempDewpointWater temp
2014-Sep-02 01:25N 36°47' E 024°35'0 0.0
2014-Sep-02 00:31N 36°47' E 024°35'0 0.0
2014-Sep-01 22:31N 36°47' E 024°35'0 0.0
2014-Sep-01 21:24N 36°47' E 024°35'1 0.3
2014-Sep-01 16:27N 36°46' E 024°34'0 0.3
2014-Sep-01 15:14N 36°46' E 024°33'2 0.5
2014-Sep-01 12:13N 36°47' E 024°35'0 0.0
2014-Sep-01 11:32N 36°47' E 024°35'1 1.2
2014-Sep-01 10:27N 36°46' E 024°34'0 0.0
2014-Sep-01 09:12N 36°46' E 024°34'0 0.4
2014-Sep-01 08:29N 36°46' E 024°33'1 1.0
2014-Sep-01 07:30N 36°46' E 024°34'0 0.0
2014-Sep-01 04:33N 36°46' E 024°34'1 0.4
2014-Sep-01 02:13N 36°47' E 024°35'0 0.0
2014-Sep-01 01:31N 36°47' E 024°35'0 0.0
2014-Sep-01 00:31N 36°47' E 024°35'0 0.0
2014-Aug-31 23:25N 36°47' E 024°35'0 0.0
2014-Aug-31 21:31N 36°47' E 024°35'1 0.2
2014-Aug-31 17:03N 36°46' E 024°34'0 0.4
2014-Aug-31 16:24N 36°46' E 024°34'0 0.0
2014-Aug-31 15:08N 36°46' E 024°34'  
2014-Aug-29 07:21N 36°47' E 024°35'0 0.1
2014-Aug-29 06:33N 36°47' E 024°35'1 0.3
2014-Aug-29 04:33N 36°46' E 024°34'1 0.7
2014-Aug-29 03:28N 36°47' E 024°35'0 0.0
2014-Aug-29 02:28N 36°47' E 024°35'0 0.0
2014-Aug-29 01:29N 36°47' E 024°35'1 0.1
2014-Aug-28 15:10N 36°46' E 024°34'0 0.4
2014-Aug-28 14:19N 36°46' E 024°34'0 0.0
2014-Aug-28 10:24N 36°46' E 024°34'0 0.0
2014-Aug-27 16:24N 36°46' E 024°34'1 0.1
2014-Aug-26 22:16N 36°47' E 024°35'2 0.3
2014-Aug-26 15:14N 36°46' E 024°33'1 0.9
2014-Aug-26 14:17N 36°46' E 024°34'1 0.1
2014-Aug-26 10:27N 36°46' E 024°33'0 0.1
2014-Aug-26 09:11N 36°46' E 024°34'0 0.5
2014-Aug-26 08:31N 36°46' E 024°34'1 0.5
2014-Aug-26 07:22N 36°47' E 024°35'2 1.3
2014-Aug-26 05:33N 36°46' E 024°32'3 2.3
2014-Aug-26 04:27N 36°47' E 024°35'1 0.0
2014-Aug-24 17:20N 36°46' E 024°34'0 0.0
2014-Aug-24 09:14N 36°46' E 024°34'  

Dump ship's entire track history